createdAt,value
2019-04-06T00:00:07.795Z,61.30
2019-04-06T00:02:41.364Z,48.30
2019-04-06T00:05:13.211Z,49.90
2019-04-06T00:07:44.871Z,52.73
2019-04-06T00:10:16.678Z,76.20
2019-04-06T00:12:48.474Z,64.23
2019-04-06T00:15:20.162Z,51.00
2019-04-06T00:17:51.875Z,67.90
2019-04-06T00:20:23.678Z,52.20
2019-04-06T00:22:55.465Z,45.67
2019-04-06T00:25:27.196Z,53.27
2019-04-06T00:27:58.862Z,67.10
2019-04-06T00:30:33.195Z,48.57
2019-04-06T00:33:10.492Z,45.83
2019-04-06T00:35:42.271Z,36.60
2019-04-06T00:38:14.074Z,42.97
2019-04-06T00:40:45.758Z,41.80
2019-04-06T00:43:17.551Z,39.90
2019-04-06T00:45:49.349Z,43.03
2019-04-06T00:48:21.075Z,45.30
2019-04-06T00:50:52.758Z,51.37
2019-04-06T00:53:24.480Z,89.67
2019-04-06T00:55:57.096Z,89.83
2019-04-06T00:58:28.881Z,78.03
2019-04-06T01:01:00.767Z,59.90
2019-04-06T01:03:32.633Z,39.27
2019-04-06T01:06:04.352Z,106.27
2019-04-06T01:08:36.037Z,83.40
2019-04-06T01:11:07.641Z,57.73
2019-04-06T01:13:39.662Z,51.40
2019-04-06T01:16:11.456Z,40.27
2019-04-06T01:18:43.291Z,50.60
2019-04-06T01:21:14.993Z,41.90
2019-04-06T01:23:46.813Z,52.63
2019-04-06T01:26:18.583Z,60.90
2019-04-06T01:28:50.369Z,82.80
2019-04-06T01:31:21.980Z,97.70
2019-04-06T01:33:53.768Z,69.57
2019-04-06T01:36:26.732Z,84.63
2019-04-06T01:38:58.345Z,146.53
2019-04-06T01:41:30.050Z,87.73
2019-04-06T01:44:01.835Z,67.83
2019-04-06T01:46:33.677Z,42.30
2019-04-06T01:49:05.522Z,94.37
2019-04-06T01:51:38.284Z,65.50
2019-04-06T01:54:10.156Z,57.47
2019-04-06T01:56:41.859Z,62.90
2019-04-06T01:59:13.468Z,38.07
2019-04-06T02:01:53.721Z,54.83
2019-04-06T02:04:25.448Z,45.20
2019-04-06T02:06:57.308Z,34.30
2019-04-06T02:09:29.099Z,37.87
2019-04-06T02:12:00.717Z,49.33
2019-04-06T02:14:32.524Z,44.87
2019-04-06T02:17:04.220Z,63.17
2019-04-06T02:19:36.010Z,67.60
2019-04-06T02:22:09.060Z,45.20
2019-04-06T02:24:40.861Z,35.13
2019-04-06T02:27:12.585Z,44.00
2019-04-06T02:29:44.492Z,55.17
2019-04-06T02:32:41.299Z,92.43
2019-04-06T02:35:36.732Z,75.80
2019-04-06T02:38:28.787Z,75.97
2019-04-06T02:41:08.365Z,73.80
2019-04-06T02:43:40.539Z,80.93
2019-04-06T02:46:12.247Z,62.43
2019-04-06T02:48:44.035Z,53.67
2019-04-06T02:51:15.768Z,86.27
2019-04-06T02:53:47.542Z,65.77
2019-04-06T02:56:19.333Z,69.37
2019-04-06T02:58:51.053Z,46.67
2019-04-06T03:01:23.872Z,53.97
2019-04-06T03:03:55.700Z,63.63
2019-04-06T03:06:30.235Z,56.77
2019-04-06T03:09:02.019Z,57.43
2019-04-06T03:11:34.815Z,67.40
2019-04-06T03:14:06.790Z,60.57
2019-04-06T03:16:38.606Z,72.90
2019-04-06T03:19:10.686Z,66.10
2019-04-06T03:21:42.513Z,59.67
2019-04-06T03:24:14.309Z,61.20
2019-04-06T03:26:59.810Z,71.40
2019-04-06T03:29:19.532Z,68.77
2019-04-06T03:31:51.747Z,70.87
2019-04-06T03:34:23.527Z,91.10
2019-04-06T03:36:55.252Z,54.37
2019-04-06T03:39:27.031Z,59.87
2019-04-06T03:41:58.757Z,56.93
2019-04-06T03:44:30.460Z,53.20
2019-04-06T03:47:02.196Z,44.77
2019-04-06T03:49:34.086Z,54.73
2019-04-06T03:52:05.825Z,58.40
2019-04-06T03:54:37.805Z,59.17
2019-04-06T03:57:15.862Z,54.17
2019-04-06T03:59:43.319Z,51.10
2019-04-06T04:02:14.942Z,61.07
2019-04-06T04:04:46.754Z,56.80
2019-04-06T04:07:18.543Z,46.30
2019-04-06T04:09:50.261Z,53.03
2019-04-06T04:12:22.084Z,53.20
2019-04-06T04:14:53.888Z,58.97
2019-04-06T04:17:25.783Z,48.67
2019-04-06T04:19:57.539Z,53.33
2019-04-06T04:22:30.259Z,51.53
2019-04-06T04:25:01.983Z,47.10
2019-04-06T04:27:34.783Z,54.03
2019-04-06T04:30:07.330Z,55.87
2019-04-06T04:32:39.231Z,56.07
2019-04-06T04:35:10.997Z,56.00
2019-04-06T04:37:42.810Z,52.17
2019-04-06T04:40:14.593Z,51.83
2019-04-06T04:42:46.315Z,58.43
2019-04-06T04:45:18.157Z,56.47
2019-04-06T04:47:50.280Z,73.87
2019-04-06T04:50:22.448Z,69.83
2019-04-06T04:52:54.143Z,41.93
2019-04-06T04:55:26.827Z,38.47
2019-04-06T04:57:58.598Z,38.57
2019-04-06T05:00:30.301Z,35.90
2019-04-06T05:03:02.017Z,38.57
2019-04-06T05:05:33.812Z,49.37
2019-04-06T05:08:05.503Z,40.20
2019-04-06T05:10:37.370Z,39.83
2019-04-06T05:13:09.161Z,46.13
2019-04-06T05:16:16.943Z,38.03
2019-04-06T05:18:48.559Z,36.07
2019-04-06T05:21:20.279Z,37.07
2019-04-06T05:23:52.074Z,38.10
2019-04-06T05:26:23.856Z,37.40
2019-04-06T05:28:55.607Z,31.93
2019-04-06T05:31:27.380Z,55.30
2019-04-06T05:33:59.171Z,53.67
2019-04-06T05:36:30.781Z,54.17
2019-04-06T05:39:02.524Z,58.47
2019-04-06T05:41:35.293Z,41.00
2019-04-06T05:44:07.348Z,48.80
2019-04-06T05:46:39.116Z,45.63
2019-04-06T05:49:10.818Z,41.80
2019-04-06T05:51:42.856Z,43.53
2019-04-06T05:54:14.553Z,53.33
2019-04-06T05:56:46.273Z,49.80
2019-04-06T05:59:17.979Z,48.47
2019-04-06T06:01:49.895Z,46.27
2019-04-06T06:04:21.630Z,36.50
2019-04-06T06:06:53.863Z,38.03
2019-04-06T06:09:27.241Z,34.00
2019-04-06T06:12:00.083Z,42.83
2019-04-06T06:14:31.989Z,32.80
2019-04-06T06:17:04.673Z,41.93
2019-04-06T06:19:37.437Z,47.53
2019-04-06T06:22:10.162Z,47.53
2019-04-06T06:24:41.945Z,45.67
2019-04-06T06:27:13.558Z,40.83
2019-04-06T06:29:45.499Z,46.37
2019-04-06T06:32:17.312Z,38.30
2019-04-06T06:34:49.226Z,51.43
2019-04-06T06:37:20.939Z,40.90
2019-04-06T06:39:52.763Z,40.97
2019-04-06T06:42:24.487Z,34.47
2019-04-06T06:44:56.493Z,34.73
2019-04-06T06:47:28.165Z,33.83
2019-04-06T06:49:59.874Z,34.87
2019-04-06T06:52:31.662Z,39.80
2019-04-06T06:55:03.390Z,30.33
2019-04-06T06:57:35.032Z,38.33
2019-04-06T07:00:07.365Z,36.97
2019-04-06T07:02:39.148Z,41.70
2019-04-06T07:05:12.184Z,35.47
2019-04-06T07:07:43.879Z,29.70
2019-04-06T07:10:15.713Z,33.10
2019-04-06T07:12:47.591Z,31.50
2019-04-06T07:15:19.322Z,33.90
2019-04-06T07:17:51.161Z,33.87
2019-04-06T07:20:24.828Z,32.30
2019-04-06T07:22:59.772Z,41.67
2019-04-06T07:25:32.447Z,32.50
2019-04-06T07:28:06.289Z,36.67
2019-04-06T07:30:38.599Z,61.13
2019-04-06T07:33:10.294Z,92.93
2019-04-06T07:35:42.083Z,45.10
2019-04-06T07:38:13.719Z,61.33
2019-04-06T07:40:45.494Z,42.10
2019-04-06T07:43:17.169Z,37.90
2019-04-06T07:45:48.819Z,47.23
2019-04-06T07:48:20.569Z,35.53
2019-04-06T07:50:52.198Z,35.20
2019-04-06T07:53:24.017Z,43.77
2019-04-06T07:55:55.641Z,33.00
2019-04-06T07:58:27.271Z,33.73
2019-04-06T08:00:58.996Z,35.60
2019-04-06T08:03:30.871Z,44.50
2019-04-06T08:06:02.730Z,100.33
2019-04-06T08:08:34.497Z,67.00
2019-04-06T08:11:06.394Z,44.20
2019-04-06T08:13:40.693Z,58.60
2019-04-06T08:16:13.232Z,44.07
2019-04-06T08:18:45.107Z,39.87
2019-04-06T08:21:16.960Z,35.10
2019-04-06T08:23:48.714Z,35.63
2019-04-06T08:26:20.603Z,33.53
2019-04-06T08:29:00.340Z,25.10
2019-04-06T08:31:25.791Z,31.37
2019-04-06T08:33:57.495Z,58.73
2019-04-06T08:36:29.129Z,40.13
2019-04-06T08:39:01.838Z,42.17
2019-04-06T08:41:35.046Z,50.10
2019-04-06T08:44:06.901Z,40.23
2019-04-06T08:46:39.782Z,28.87
2019-04-06T08:49:12.436Z,32.57
2019-04-06T08:51:44.364Z,30.63
2019-04-06T08:54:16.437Z,27.13
2019-04-06T08:56:48.499Z,31.80
2019-04-06T08:59:20.324Z,29.13
2019-04-06T09:01:52.307Z,28.73
2019-04-06T09:04:24.490Z,33.23
2019-04-06T09:06:56.366Z,39.50
2019-04-06T09:09:28.253Z,23.70
2019-04-06T09:12:00.137Z,34.30
2019-04-06T09:14:32.078Z,33.60
2019-04-06T09:17:03.988Z,33.00
2019-04-06T09:19:35.807Z,23.87
2019-04-06T09:22:08.479Z,27.23
2019-04-06T09:24:40.346Z,29.57
2019-04-06T09:27:12.312Z,49.47
2019-04-06T09:29:45.752Z,40.50
2019-04-06T09:32:18.264Z,29.53
2019-04-06T09:34:50.065Z,27.80
2019-04-06T09:37:23.336Z,26.40
2019-04-06T09:39:55.931Z,24.40
2019-04-06T09:42:28.494Z,23.17
2019-04-06T09:45:22.558Z,38.27
2019-04-06T09:47:59.307Z,94.00
2019-04-06T09:50:44.209Z,43.80
2019-04-06T09:53:33.741Z,28.63
2019-04-06T09:56:22.936Z,25.87
2019-04-06T09:59:35.370Z,28.27
2019-04-06T10:02:07.381Z,25.63
2019-04-06T10:04:56.272Z,26.03
2019-04-06T10:07:41.819Z,31.03
2019-04-06T10:10:31.160Z,32.47
2019-04-06T10:13:22.043Z,29.23
2019-04-06T10:16:12.819Z,27.90
2019-04-06T10:19:18.989Z,36.17
2019-04-06T10:22:08.571Z,23.40
2019-04-06T10:24:59.633Z,28.93
2019-04-06T10:27:59.456Z,26.73
2019-04-06T10:30:48.065Z,27.93
2019-04-06T10:33:37.147Z,23.23
2019-04-06T10:36:15.222Z,44.73
2019-04-06T10:39:20.995Z,24.83
2019-04-06T10:42:07.302Z,20.67
2019-04-06T10:44:58.975Z,25.93
2019-04-06T10:47:48.894Z,21.90
2019-04-06T10:50:39.613Z,29.27
2019-04-06T10:53:48.560Z,67.30
2019-04-06T10:56:43.545Z,21.77
2019-04-06T10:59:43.234Z,23.60
2019-04-06T11:02:52.082Z,29.10
2019-04-06T11:05:31.887Z,130.73
2019-04-06T11:08:21.204Z,20.60
2019-04-06T11:11:29.761Z,27.37
2019-04-06T11:14:19.109Z,22.77
2019-04-06T11:17:12.018Z,23.22
2019-04-06T11:20:11.739Z,20.75
2019-04-06T11:23:11.512Z,19.17
2019-04-06T11:26:08.241Z,16.00
2019-04-06T11:28:53.971Z,21.45
2019-04-06T11:31:56.738Z,49.93
2019-04-06T11:34:47.479Z,22.98
2019-04-06T11:37:37.007Z,19.67
2019-04-06T11:40:26.983Z,23.40
2019-04-06T11:43:06.240Z,22.15
2019-04-06T11:45:58.182Z,25.88
2019-04-06T11:48:40.171Z,23.18
2019-04-06T11:51:39.629Z,30.75
2019-04-06T11:54:30.770Z,21.45
2019-04-06T11:57:13.910Z,23.67
2019-04-06T12:00:26.062Z,25.37
2019-04-06T12:03:21.135Z,23.55
2019-04-06T12:06:09.634Z,23.83
2019-04-06T12:09:09.599Z,48.28
2019-04-06T12:12:03.951Z,26.42
2019-04-06T12:14:54.565Z,23.27
2019-04-06T12:17:50.948Z,28.17
2019-04-06T12:20:40.798Z,61.90
2019-04-06T12:23:32.867Z,26.82
2019-04-06T12:26:12.935Z,32.25
2019-04-06T12:28:55.324Z,25.43
2019-04-06T12:32:03.949Z,23.38
2019-04-06T12:34:45.058Z,25.92
2019-04-06T12:37:38.564Z,28.50
2019-04-06T12:40:35.662Z,24.35
2019-04-06T12:43:26.375Z,27.22
2019-04-06T12:46:17.238Z,24.00
2019-04-06T12:49:01.421Z,22.90
2019-04-06T12:51:46.484Z,27.37
2019-04-06T12:54:37.113Z,22.32
2019-04-06T12:57:26.495Z,22.85
2019-04-06T13:00:26.333Z,24.12
2019-04-06T13:03:19.954Z,29.72
2019-04-06T13:06:13.940Z,27.22
2019-04-06T13:08:52.593Z,25.40
2019-04-06T13:11:52.014Z,39.33
2019-04-06T13:14:35.789Z,23.95
2019-04-06T13:17:21.302Z,30.12
2019-04-06T13:20:06.910Z,24.10
2019-04-06T13:22:56.186Z,19.50
2019-04-06T13:25:55.698Z,19.40
2019-04-06T13:28:44.996Z,19.10
2019-04-06T13:31:22.069Z,28.90
2019-04-06T13:34:04.863Z,27.42
2019-04-06T13:36:49.532Z,21.17
2019-04-06T13:39:44.749Z,23.45
2019-04-06T13:42:35.901Z,26.52
2019-04-06T13:45:35.743Z,20.75
2019-04-06T13:48:25.099Z,30.43
2019-04-06T13:51:27.579Z,19.90
2019-04-06T13:54:10.657Z,20.25
2019-04-06T13:57:19.888Z,21.55
2019-04-06T13:59:58.967Z,18.40
2019-04-06T14:02:38.895Z,19.98
2019-04-06T14:05:32.963Z,23.85
2019-04-06T14:08:19.677Z,19.30
2019-04-06T14:11:08.787Z,58.60
2019-04-06T14:13:53.397Z,23.25
2019-04-06T14:16:37.898Z,20.00
2019-04-06T14:19:32.614Z,23.52
2019-04-06T14:22:13.740Z,20.32
2019-04-06T14:25:07.327Z,27.05
2019-04-06T14:28:01.240Z,42.88
2019-04-06T14:30:51.219Z,20.25
2019-04-06T14:33:34.962Z,51.08
2019-04-06T14:36:31.743Z,31.65
2019-04-06T14:39:34.290Z,22.62
2019-04-06T14:42:37.513Z,31.40
2019-04-06T14:45:18.060Z,32.08
2019-04-06T14:47:59.659Z,21.45
2019-04-06T14:50:54.304Z,28.85
2019-04-06T14:53:31.903Z,24.05
2019-04-06T14:56:22.527Z,24.32
2019-04-06T14:59:15.941Z,26.52
2019-04-06T15:02:12.831Z,24.02
2019-04-06T15:05:05.765Z,27.37
2019-04-06T15:07:59.146Z,24.52
2019-04-06T15:10:39.620Z,23.35
2019-04-06T15:13:25.706Z,28.55
2019-04-06T15:16:25.574Z,24.27
2019-04-06T15:19:09.845Z,25.60
2019-04-06T15:21:57.786Z,27.82
2019-04-06T15:24:39.739Z,22.05
2019-04-06T15:27:36.421Z,23.83
2019-04-06T15:30:33.809Z,214.93
2019-04-06T15:33:30.285Z,21.10
2019-04-06T15:36:17.465Z,28.38
2019-04-06T15:39:06.813Z,26.15
2019-04-06T15:42:04.463Z,20.95
2019-04-06T15:44:55.184Z,26.70
2019-04-06T15:47:48.684Z,46.42
2019-04-06T15:50:29.467Z,125.35
2019-04-06T15:53:15.170Z,81.35
2019-04-06T15:56:05.864Z,54.42
2019-04-06T15:58:59.591Z,30.35
2019-04-06T16:02:02.311Z,27.50
2019-04-06T16:04:57.701Z,31.82
2019-04-06T16:07:48.444Z,24.02
2019-04-06T16:10:34.603Z,40.58
2019-04-06T16:13:25.050Z,48.90
2019-04-06T16:16:11.138Z,30.77
2019-04-06T16:19:09.219Z,27.32
2019-04-06T16:21:55.359Z,37.00
2019-04-06T16:24:40.134Z,39.85
2019-04-06T16:27:34.582Z,25.95
2019-04-06T16:30:34.877Z,23.00
2019-04-06T16:33:32.572Z,50.73
2019-04-06T16:36:22.096Z,278.83
2019-04-06T16:39:11.730Z,671.55
2019-04-06T16:42:05.721Z,173.97
2019-04-06T16:45:03.746Z,219.20
2019-04-06T16:47:50.461Z,59.60
2019-04-06T16:50:35.151Z,50.30
2019-04-06T16:53:24.799Z,122.47
2019-04-06T16:56:04.811Z,116.35
2019-04-06T16:59:04.862Z,69.97
2019-04-06T17:01:55.886Z,88.03
2019-04-06T17:04:36.389Z,217.22
2019-04-06T17:07:27.046Z,195.65
2019-04-06T17:10:20.854Z,245.95
2019-04-06T17:13:11.215Z,94.32
2019-04-06T17:16:00.733Z,71.70
2019-04-06T17:18:50.912Z,58.80
2019-04-06T17:21:29.145Z,54.20
2019-04-06T17:24:11.446Z,63.93
2019-04-06T17:26:58.531Z,35.97
2019-04-06T17:29:50.852Z,37.90
2019-04-06T17:32:42.764Z,35.73
2019-04-06T17:35:29.127Z,46.53
2019-04-06T17:38:18.563Z,72.63
2019-04-06T17:41:07.628Z,83.93
2019-04-06T17:44:07.157Z,61.27
2019-04-06T17:46:52.785Z,58.77
2019-04-06T17:49:49.459Z,61.77
2019-04-06T17:52:40.239Z,78.33
2019-04-06T17:55:23.806Z,86.30
2019-04-06T17:58:04.027Z,170.17
2019-04-06T18:01:02.967Z,224.90
2019-04-06T18:03:52.270Z,149.57
2019-04-06T18:06:37.595Z,270.30
2019-04-06T18:09:25.858Z,129.93
2019-04-06T18:12:10.118Z,121.47
2019-04-06T18:14:41.859Z,163.30
2019-04-06T18:17:13.959Z,147.17
2019-04-06T18:19:46.388Z,121.93
2019-04-06T18:22:18.292Z,168.97
2019-04-06T18:24:50.086Z,113.20
2019-04-06T18:27:21.861Z,171.60
2019-04-06T18:29:53.696Z,199.93
2019-04-06T18:32:44.914Z,166.67
2019-04-06T18:35:16.802Z,213.53
2019-04-06T18:38:07.872Z,133.60
2019-04-06T18:40:40.327Z,92.63
2019-04-06T18:43:12.401Z,74.50
2019-04-06T18:45:44.177Z,72.50
2019-04-06T18:48:16.134Z,76.60
2019-04-06T18:50:47.939Z,78.30
2019-04-06T18:53:19.809Z,70.37
2019-04-06T18:55:52.583Z,73.63
2019-04-06T18:58:25.450Z,93.90
2019-04-06T19:00:57.377Z,94.87
2019-04-06T19:03:29.265Z,102.37
2019-04-06T19:06:01.310Z,83.50
2019-04-06T19:08:33.129Z,82.67
2019-04-06T19:11:05.002Z,71.97
2019-04-06T19:13:36.912Z,63.73
2019-04-06T19:16:09.449Z,61.83
2019-04-06T19:18:41.445Z,61.77
2019-04-06T19:21:13.971Z,58.00
2019-04-06T19:23:45.776Z,63.27
2019-04-06T19:26:17.644Z,64.70
2019-04-06T19:28:49.515Z,67.97
2019-04-06T19:31:21.669Z,65.53
2019-04-06T19:33:53.543Z,46.10
2019-04-06T19:36:25.406Z,42.23
2019-04-06T19:38:57.920Z,50.87
2019-04-06T19:41:29.698Z,47.73
2019-04-06T19:44:01.464Z,41.50
2019-04-06T19:46:33.246Z,47.27
2019-04-06T19:49:05.117Z,37.87
2019-04-06T19:51:36.914Z,39.30
2019-04-06T19:54:08.605Z,41.23
2019-04-06T19:56:40.799Z,46.80
2019-04-06T19:59:14.345Z,39.73
2019-04-06T20:01:46.410Z,44.17
2019-04-06T20:04:18.349Z,44.80
2019-04-06T20:06:50.548Z,43.07
2019-04-06T20:09:25.310Z,42.50
2019-04-06T20:12:06.925Z,44.83
2019-04-06T20:14:33.305Z,40.97
2019-04-06T20:17:05.323Z,42.13
2019-04-06T20:19:37.325Z,43.57
2019-04-06T20:22:09.151Z,53.63
2019-04-06T20:24:40.970Z,45.73
2019-04-06T20:27:12.877Z,48.13
2019-04-06T20:29:44.651Z,51.37
2019-04-06T20:32:16.539Z,40.57
2019-04-06T20:34:48.445Z,50.57
2019-04-06T20:37:20.622Z,50.77
2019-04-06T20:39:52.501Z,45.37
2019-04-06T20:42:24.734Z,44.63
2019-04-06T20:44:56.566Z,43.73
2019-04-06T20:47:28.880Z,45.43
2019-04-06T20:50:00.822Z,42.00
2019-04-06T20:52:32.743Z,43.40
2019-04-06T20:55:05.009Z,42.37
2019-04-06T20:57:37.371Z,44.93
2019-04-06T21:00:09.695Z,50.20
2019-04-06T21:02:43.280Z,43.87
2019-04-06T21:05:15.067Z,57.60
2019-04-06T21:07:46.850Z,60.17
2019-04-06T21:10:19.128Z,60.00
2019-04-06T21:12:51.012Z,60.50
2019-04-06T21:15:22.895Z,54.80
2019-04-06T21:17:55.059Z,54.90
2019-04-06T21:20:27.578Z,51.93
2019-04-06T21:23:00.114Z,40.17
2019-04-06T21:25:32.190Z,41.53
2019-04-06T21:28:04.207Z,39.17
2019-04-06T21:30:36.020Z,46.53
2019-04-06T21:33:07.996Z,43.20
2019-04-06T21:35:40.006Z,42.47
2019-04-06T21:38:12.207Z,37.50
2019-04-06T21:40:44.034Z,49.27
2019-04-06T21:43:15.735Z,91.57
2019-04-06T21:45:47.662Z,46.03
2019-04-06T21:48:19.745Z,37.53
2019-04-06T21:50:52.558Z,41.60
2019-04-06T21:53:24.419Z,41.17
2019-04-06T21:56:03.442Z,41.77
2019-04-06T21:58:29.795Z,41.17
2019-04-06T22:01:02.656Z,40.93
2019-04-06T22:03:34.757Z,42.37
2019-04-06T22:06:06.535Z,41.33
2019-04-06T22:08:38.526Z,45.03
2019-04-06T22:11:10.775Z,44.90
2019-04-06T22:13:43.132Z,50.60
2019-04-06T22:16:16.665Z,48.43
2019-04-06T22:18:48.794Z,49.17
2019-04-06T22:21:20.634Z,52.03
2019-04-06T22:23:52.456Z,46.23
2019-04-06T22:26:25.229Z,51.37
2019-04-06T22:28:57.051Z,43.70
2019-04-06T22:31:29.041Z,47.27
2019-04-06T22:34:01.606Z,42.80
2019-04-06T22:36:34.629Z,46.30
2019-04-06T22:39:07.680Z,70.17
2019-04-06T22:41:39.944Z,59.00
2019-04-06T22:44:12.168Z,49.73
2019-04-06T22:46:44.026Z,50.57
2019-04-06T22:49:16.106Z,41.70
2019-04-06T22:51:48.311Z,40.73
2019-04-06T22:54:21.419Z,48.07
2019-04-06T22:56:53.301Z,36.20
2019-04-06T22:59:25.641Z,40.43
2019-04-06T23:01:57.633Z,41.33
2019-04-06T23:04:47.815Z,47.63
2019-04-06T23:07:16.706Z,43.47
2019-04-06T23:09:48.547Z,46.57
2019-04-06T23:12:20.335Z,45.87
2019-04-06T23:14:52.409Z,43.23
2019-04-06T23:17:24.277Z,46.77
2019-04-06T23:19:56.262Z,48.53
2019-04-06T23:22:28.583Z,59.80
2019-04-06T23:25:00.503Z,52.60
2019-04-06T23:27:32.670Z,48.17
2019-04-06T23:30:04.920Z,52.67
2019-04-06T23:32:37.377Z,53.77
2019-04-06T23:35:09.394Z,45.80
2019-04-06T23:37:41.306Z,40.63
2019-04-06T23:40:13.474Z,46.40
2019-04-06T23:42:45.857Z,53.20
2019-04-06T23:45:18.504Z,52.93
2019-04-06T23:47:50.429Z,45.60
2019-04-06T23:50:22.586Z,42.97
2019-04-06T23:52:54.596Z,48.67
2019-04-06T23:55:27.100Z,49.57
2019-04-06T23:57:58.989Z,44.63
